sensor_id;sensor_type;location;lat;lon;timestamp;P1;durP1;ratioP1;P2;durP2;ratioP2
46675;SDS011;32412;51.478;5.694;2022-08-24T00:01:55;22.55;;;18.15;;
46675;SDS011;32412;51.478;5.694;2022-08-24T00:04:21;19.90;;;17.23;;
46675;SDS011;32412;51.478;5.694;2022-08-24T00:06:48;24.58;;;18.08;;
46675;SDS011;32412;51.478;5.694;2022-08-24T00:09:14;21.65;;;17.50;;
46675;SDS011;32412;51.478;5.694;2022-08-24T00:11:40;18.35;;;16.38;;
46675;SDS011;32412;51.478;5.694;2022-08-24T00:14:06;21.35;;;16.63;;
46675;SDS011;32412;51.478;5.694;2022-08-24T00:16:32;18.67;;;16.55;;
46675;SDS011;32412;51.478;5.694;2022-08-24T00:18:59;20.17;;;15.85;;
46675;SDS011;32412;51.478;5.694;2022-08-24T00:21:25;18.35;;;13.70;;
46675;SDS011;32412;51.478;5.694;2022-08-24T00:23:51;14.70;;;13.20;;
46675;SDS011;32412;51.478;5.694;2022-08-24T00:26:17;16.27;;;13.88;;
46675;SDS011;32412;51.478;5.694;2022-08-24T00:28:42;15.50;;;13.55;;
46675;SDS011;32412;51.478;5.694;2022-08-24T00:31:08;15.13;;;13.52;;
46675;SDS011;32412;51.478;5.694;2022-08-24T00:33:34;23.88;;;15.40;;
46675;SDS011;32412;51.478;5.694;2022-08-24T00:36:01;18.10;;;15.45;;
46675;SDS011;32412;51.478;5.694;2022-08-24T00:38:28;19.65;;;16.23;;
46675;SDS011;32412;51.478;5.694;2022-08-24T00:40:53;17.90;;;14.88;;
46675;SDS011;32412;51.478;5.694;2022-08-24T00:43:20;15.98;;;14.00;;
46675;SDS011;32412;51.478;5.694;2022-08-24T00:45:58;20.45;;;13.75;;
46675;SDS011;32412;51.478;5.694;2022-08-24T00:48:50;17.73;;;13.70;;
46675;SDS011;32412;51.478;5.694;2022-08-24T00:51:26;19.50;;;17.05;;
46675;SDS011;32412;51.478;5.694;2022-08-24T00:53:56;24.50;;;17.33;;
46675;SDS011;32412;51.478;5.694;2022-08-24T00:56:27;20.73;;;17.40;;
46675;SDS011;32412;51.478;5.694;2022-08-24T00:58:58;26.40;;;22.30;;
46675;SDS011;32412;51.478;5.694;2022-08-24T01:01:27;23.98;;;20.35;;
46675;SDS011;32412;51.478;5.694;2022-08-24T01:03:55;23.10;;;19.40;;
46675;SDS011;32412;51.478;5.694;2022-08-24T01:06:21;22.67;;;18.88;;
46675;SDS011;32412;51.478;5.694;2022-08-24T01:08:47;22.60;;;19.92;;
46675;SDS011;32412;51.478;5.694;2022-08-24T01:11:16;23.42;;;20.75;;
46675;SDS011;32412;51.478;5.694;2022-08-24T01:13:46;25.92;;;21.52;;
46675;SDS011;32412;51.478;5.694;2022-08-24T01:16:14;27.08;;;22.67;;
46675;SDS011;32412;51.478;5.694;2022-08-24T01:19:04;26.42;;;23.33;;
46675;SDS011;32412;51.478;5.694;2022-08-24T01:21:42;22.75;;;20.40;;
46675;SDS011;32412;51.478;5.694;2022-08-24T01:24:13;23.02;;;20.58;;
46675;SDS011;32412;51.478;5.694;2022-08-24T01:26:44;23.23;;;20.73;;
46675;SDS011;32412;51.478;5.694;2022-08-24T01:29:24;28.10;;;24.67;;
46675;SDS011;32412;51.478;5.694;2022-08-24T01:31:51;28.15;;;24.73;;
46675;SDS011;32412;51.478;5.694;2022-08-24T01:34:17;32.58;;;26.20;;
46675;SDS011;32412;51.478;5.694;2022-08-24T01:36:44;24.50;;;20.60;;
46675;SDS011;32412;51.478;5.694;2022-08-24T01:39:13;25.67;;;22.02;;
46675;SDS011;32412;51.478;5.694;2022-08-24T01:42:12;29.63;;;25.02;;
46675;SDS011;32412;51.478;5.694;2022-08-24T01:44:39;32.22;;;28.80;;
46675;SDS011;32412;51.478;5.694;2022-08-24T01:47:08;41.13;;;34.10;;
46675;SDS011;32412;51.478;5.694;2022-08-24T01:49:36;37.75;;;30.75;;
46675;SDS011;32412;51.478;5.694;2022-08-24T01:52:04;36.08;;;32.17;;
46675;SDS011;32412;51.478;5.694;2022-08-24T01:54:32;38.15;;;33.65;;
46675;SDS011;32412;51.478;5.694;2022-08-24T01:56:59;39.58;;;33.63;;
46675;SDS011;32412;51.478;5.694;2022-08-24T01:59:25;40.10;;;35.75;;
46675;SDS011;32412;51.478;5.694;2022-08-24T02:01:53;38.92;;;33.97;;
46675;SDS011;32412;51.478;5.694;2022-08-24T02:04:23;39.40;;;35.03;;
46675;SDS011;32412;51.478;5.694;2022-08-24T02:06:48;45.35;;;37.17;;
46675;SDS011;32412;51.478;5.694;2022-08-24T02:09:14;43.33;;;36.85;;
46675;SDS011;32412;51.478;5.694;2022-08-24T02:11:41;40.55;;;34.72;;
46675;SDS011;32412;51.478;5.694;2022-08-24T02:14:07;35.58;;;31.67;;
46675;SDS011;32412;51.478;5.694;2022-08-24T02:16:32;37.25;;;33.33;;
46675;SDS011;32412;51.478;5.694;2022-08-24T02:18:58;40.88;;;34.97;;
46675;SDS011;32412;51.478;5.694;2022-08-24T02:21:24;43.22;;;36.10;;
46675;SDS011;32412;51.478;5.694;2022-08-24T02:23:50;42.65;;;38.10;;
46675;SDS011;32412;51.478;5.694;2022-08-24T02:26:16;49.47;;;39.85;;
46675;SDS011;32412;51.478;5.694;2022-08-24T02:28:42;50.55;;;40.75;;
46675;SDS011;32412;51.478;5.694;2022-08-24T02:31:08;56.38;;;44.67;;
46675;SDS011;32412;51.478;5.694;2022-08-24T02:33:36;43.00;;;38.42;;
46675;SDS011;32412;51.478;5.694;2022-08-24T02:36:03;40.88;;;33.97;;
46675;SDS011;32412;51.478;5.694;2022-08-24T02:38:30;38.80;;;33.30;;
46675;SDS011;32412;51.478;5.694;2022-08-24T02:40:56;41.22;;;33.78;;
46675;SDS011;32412;51.478;5.694;2022-08-24T02:43:22;40.95;;;34.85;;
46675;SDS011;32412;51.478;5.694;2022-08-24T02:45:49;43.03;;;37.25;;
46675;SDS011;32412;51.478;5.694;2022-08-24T02:48:15;41.42;;;35.17;;
46675;SDS011;32412;51.478;5.694;2022-08-24T02:50:43;40.25;;;34.40;;
46675;SDS011;32412;51.478;5.694;2022-08-24T02:53:10;40.25;;;35.90;;
46675;SDS011;32412;51.478;5.694;2022-08-24T02:55:38;40.00;;;34.47;;
46675;SDS011;32412;51.478;5.694;2022-08-24T02:58:05;41.88;;;36.10;;
46675;SDS011;32412;51.478;5.694;2022-08-24T03:00:31;47.22;;;41.60;;
46675;SDS011;32412;51.478;5.694;2022-08-24T03:02:57;57.95;;;45.28;;
46675;SDS011;32412;51.478;5.694;2022-08-24T03:05:23;65.68;;;49.78;;
46675;SDS011;32412;51.478;5.694;2022-08-24T03:07:50;55.67;;;46.22;;
46675;SDS011;32412;51.478;5.694;2022-08-24T03:10:17;56.30;;;47.22;;
46675;SDS011;32412;51.478;5.694;2022-08-24T03:12:43;58.03;;;48.42;;
46675;SDS011;32412;51.478;5.694;2022-08-24T03:15:09;55.90;;;44.15;;
46675;SDS011;32412;51.478;5.694;2022-08-24T03:17:35;51.22;;;42.88;;
46675;SDS011;32412;51.478;5.694;2022-08-24T03:20:04;47.03;;;39.60;;
46675;SDS011;32412;51.478;5.694;2022-08-24T03:22:31;42.65;;;36.15;;
46675;SDS011;32412;51.478;5.694;2022-08-24T03:24:57;49.05;;;39.30;;
46675;SDS011;32412;51.478;5.694;2022-08-24T03:27:23;45.90;;;36.72;;
46675;SDS011;32412;51.478;5.694;2022-08-24T03:29:49;43.33;;;36.00;;
46675;SDS011;32412;51.478;5.694;2022-08-24T03:32:15;53.28;;;42.03;;
46675;SDS011;32412;51.478;5.694;2022-08-24T03:34:41;48.25;;;41.75;;
46675;SDS011;32412;51.478;5.694;2022-08-24T03:37:07;46.50;;;40.88;;
46675;SDS011;32412;51.478;5.694;2022-08-24T03:39:33;50.47;;;42.80;;
46675;SDS011;32412;51.478;5.694;2022-08-24T03:41:59;46.10;;;39.95;;
46675;SDS011;32412;51.478;5.694;2022-08-24T03:44:25;50.30;;;41.78;;
46675;SDS011;32412;51.478;5.694;2022-08-24T03:46:51;47.15;;;41.25;;
46675;SDS011;32412;51.478;5.694;2022-08-24T03:49:18;51.20;;;42.85;;
46675;SDS011;32412;51.478;5.694;2022-08-24T03:51:44;52.17;;;44.38;;
46675;SDS011;32412;51.478;5.694;2022-08-24T03:54:10;57.03;;;47.22;;
46675;SDS011;32412;51.478;5.694;2022-08-24T03:56:36;57.55;;;47.83;;
46675;SDS011;32412;51.478;5.694;2022-08-24T03:59:02;54.22;;;44.35;;
46675;SDS011;32412;51.478;5.694;2022-08-24T04:01:29;44.70;;;38.13;;
46675;SDS011;32412;51.478;5.694;2022-08-24T04:03:55;46.13;;;39.65;;
46675;SDS011;32412;51.478;5.694;2022-08-24T04:06:21;43.97;;;38.50;;
46675;SDS011;32412;51.478;5.694;2022-08-24T04:08:47;47.22;;;37.42;;
46675;SDS011;32412;51.478;5.694;2022-08-24T04:11:14;41.22;;;36.72;;
46675;SDS011;32412;51.478;5.694;2022-08-24T04:13:42;43.97;;;39.17;;
46675;SDS011;32412;51.478;5.694;2022-08-24T04:16:09;50.53;;;41.85;;
46675;SDS011;32412;51.478;5.694;2022-08-24T04:18:40;49.72;;;42.47;;
46675;SDS011;32412;51.478;5.694;2022-08-24T04:21:14;57.58;;;46.47;;
46675;SDS011;32412;51.478;5.694;2022-08-24T04:23:44;59.92;;;46.20;;
46675;SDS011;32412;51.478;5.694;2022-08-24T04:26:10;56.30;;;44.97;;
46675;SDS011;32412;51.478;5.694;2022-08-24T04:28:36;51.00;;;43.33;;
46675;SDS011;32412;51.478;5.694;2022-08-24T04:31:03;46.20;;;40.83;;
46675;SDS011;32412;51.478;5.694;2022-08-24T04:33:30;46.80;;;39.60;;
46675;SDS011;32412;51.478;5.694;2022-08-24T04:35:56;46.65;;;40.67;;
46675;SDS011;32412;51.478;5.694;2022-08-24T04:38:22;48.17;;;39.70;;
46675;SDS011;32412;51.478;5.694;2022-08-24T04:40:48;48.25;;;38.80;;
46675;SDS011;32412;51.478;5.694;2022-08-24T04:43:14;45.90;;;39.25;;
46675;SDS011;32412;51.478;5.694;2022-08-24T04:45:41;54.08;;;41.90;;
46675;SDS011;32412;51.478;5.694;2022-08-24T04:48:08;57.78;;;47.92;;
46675;SDS011;32412;51.478;5.694;2022-08-24T04:50:39;57.28;;;46.75;;
46675;SDS011;32412;51.478;5.694;2022-08-24T04:53:06;56.60;;;46.40;;
46675;SDS011;32412;51.478;5.694;2022-08-24T04:55:33;56.30;;;46.30;;
46675;SDS011;32412;51.478;5.694;2022-08-24T04:58:10;56.40;;;46.13;;
46675;SDS011;32412;51.478;5.694;2022-08-24T05:00:37;51.67;;;44.45;;
46675;SDS011;32412;51.478;5.694;2022-08-24T05:03:03;51.92;;;42.75;;
46675;SDS011;32412;51.478;5.694;2022-08-24T05:05:29;49.45;;;43.13;;
46675;SDS011;32412;51.478;5.694;2022-08-24T05:07:55;46.08;;;40.40;;
46675;SDS011;32412;51.478;5.694;2022-08-24T05:10:20;53.75;;;46.45;;
46675;SDS011;32412;51.478;5.694;2022-08-24T05:12:50;54.58;;;45.58;;
46675;SDS011;32412;51.478;5.694;2022-08-24T05:15:15;54.35;;;43.97;;
46675;SDS011;32412;51.478;5.694;2022-08-24T05:17:41;53.05;;;44.92;;
46675;SDS011;32412;51.478;5.694;2022-08-24T05:20:08;54.35;;;45.20;;
46675;SDS011;32412;51.478;5.694;2022-08-24T05:22:35;50.53;;;41.80;;
46675;SDS011;32412;51.478;5.694;2022-08-24T05:25:01;59.53;;;47.97;;
46675;SDS011;32412;51.478;5.694;2022-08-24T05:27:28;58.08;;;48.25;;
46675;SDS011;32412;51.478;5.694;2022-08-24T05:29:54;58.25;;;49.63;;
46675;SDS011;32412;51.478;5.694;2022-08-24T05:32:20;58.30;;;48.30;;
46675;SDS011;32412;51.478;5.694;2022-08-24T05:34:45;56.80;;;48.30;;
46675;SDS011;32412;51.478;5.694;2022-08-24T05:37:11;56.45;;;50.20;;
46675;SDS011;32412;51.478;5.694;2022-08-24T05:39:37;56.90;;;48.88;;
46675;SDS011;32412;51.478;5.694;2022-08-24T05:42:03;56.47;;;47.35;;
46675;SDS011;32412;51.478;5.694;2022-08-24T05:44:29;56.15;;;45.45;;
46675;SDS011;32412;51.478;5.694;2022-08-24T05:46:55;55.10;;;46.22;;
46675;SDS011;32412;51.478;5.694;2022-08-24T05:49:22;56.83;;;47.20;;
46675;SDS011;32412;51.478;5.694;2022-08-24T05:51:49;60.28;;;48.80;;
46675;SDS011;32412;51.478;5.694;2022-08-24T05:54:15;56.85;;;47.40;;
46675;SDS011;32412;51.478;5.694;2022-08-24T05:56:41;56.25;;;48.08;;
46675;SDS011;32412;51.478;5.694;2022-08-24T05:59:09;55.83;;;48.00;;
46675;SDS011;32412;51.478;5.694;2022-08-24T06:01:35;56.40;;;48.85;;
46675;SDS011;32412;51.478;5.694;2022-08-24T06:04:02;61.60;;;52.65;;
46675;SDS011;32412;51.478;5.694;2022-08-24T06:06:28;64.75;;;57.35;;
46675;SDS011;32412;51.478;5.694;2022-08-24T06:08:56;74.75;;;59.85;;
46675;SDS011;32412;51.478;5.694;2022-08-24T06:11:27;67.15;;;58.85;;
46675;SDS011;32412;51.478;5.694;2022-08-24T06:13:56;70.25;;;60.80;;
46675;SDS011;32412;51.478;5.694;2022-08-24T06:16:24;70.13;;;56.95;;
46675;SDS011;32412;51.478;5.694;2022-08-24T06:18:50;73.93;;;59.00;;
46675;SDS011;32412;51.478;5.694;2022-08-24T06:21:18;60.72;;;53.75;;
46675;SDS011;32412;51.478;5.694;2022-08-24T06:23:49;64.15;;;55.58;;
46675;SDS011;32412;51.478;5.694;2022-08-24T06:26:15;62.17;;;51.40;;
46675;SDS011;32412;51.478;5.694;2022-08-24T06:29:00;66.45;;;55.47;;
46675;SDS011;32412;51.478;5.694;2022-08-24T06:31:26;57.95;;;51.05;;
46675;SDS011;32412;51.478;5.694;2022-08-24T06:33:55;55.30;;;48.60;;
46675;SDS011;32412;51.478;5.694;2022-08-24T06:36:21;62.80;;;51.95;;
46675;SDS011;32412;51.478;5.694;2022-08-24T06:38:46;54.72;;;48.83;;
46675;SDS011;32412;51.478;5.694;2022-08-24T06:41:15;56.95;;;47.67;;
46675;SDS011;32412;51.478;5.694;2022-08-24T06:43:54;61.28;;;49.85;;
46675;SDS011;32412;51.478;5.694;2022-08-24T06:46:20;58.78;;;45.80;;
46675;SDS011;32412;51.478;5.694;2022-08-24T06:48:46;46.08;;;39.60;;
46675;SDS011;32412;51.478;5.694;2022-08-24T06:51:13;50.25;;;42.80;;
46675;SDS011;32412;51.478;5.694;2022-08-24T06:53:40;47.30;;;39.78;;
46675;SDS011;32412;51.478;5.694;2022-08-24T06:56:06;45.08;;;38.45;;
46675;SDS011;32412;51.478;5.694;2022-08-24T06:58:33;48.88;;;38.00;;
46675;SDS011;32412;51.478;5.694;2022-08-24T07:01:09;47.10;;;37.35;;
46675;SDS011;32412;51.478;5.694;2022-08-24T07:03:37;40.60;;;33.75;;
46675;SDS011;32412;51.478;5.694;2022-08-24T07:06:03;43.60;;;33.60;;
46675;SDS011;32412;51.478;5.694;2022-08-24T07:08:30;39.45;;;33.17;;
46675;SDS011;32412;51.478;5.694;2022-08-24T07:10:56;59.10;;;47.28;;
46675;SDS011;32412;51.478;5.694;2022-08-24T07:13:22;40.15;;;30.08;;
46675;SDS011;32412;51.478;5.694;2022-08-24T07:15:49;38.08;;;30.38;;
46675;SDS011;32412;51.478;5.694;2022-08-24T07:18:16;40.17;;;33.15;;
46675;SDS011;32412;51.478;5.694;2022-08-24T07:20:42;28.83;;;23.90;;
46675;SDS011;32412;51.478;5.694;2022-08-24T07:23:08;39.22;;;30.80;;
46675;SDS011;32412;51.478;5.694;2022-08-24T07:25:37;33.55;;;29.80;;
46675;SDS011;32412;51.478;5.694;2022-08-24T07:28:02;33.05;;;27.38;;
46675;SDS011;32412;51.478;5.694;2022-08-24T07:30:28;32.42;;;24.90;;
46675;SDS011;32412;51.478;5.694;2022-08-24T07:32:54;132.48;;;96.30;;
46675;SDS011;32412;51.478;5.694;2022-08-24T07:35:21;52.53;;;39.72;;
46675;SDS011;32412;51.478;5.694;2022-08-24T07:37:48;85.80;;;66.43;;
46675;SDS011;32412;51.478;5.694;2022-08-24T07:40:14;27.15;;;21.23;;
46675;SDS011;32412;51.478;5.694;2022-08-24T07:42:40;23.42;;;19.20;;
46675;SDS011;32412;51.478;5.694;2022-08-24T07:45:06;28.60;;;23.60;;
46675;SDS011;32412;51.478;5.694;2022-08-24T07:47:32;37.75;;;28.85;;
46675;SDS011;32412;51.478;5.694;2022-08-24T07:49:58;20.02;;;15.25;;
46675;SDS011;32412;51.478;5.694;2022-08-24T07:52:24;16.42;;;12.90;;
46675;SDS011;32412;51.478;5.694;2022-08-24T07:54:50;20.55;;;15.88;;
46675;SDS011;32412;51.478;5.694;2022-08-24T07:57:16;19.02;;;13.88;;
46675;SDS011;32412;51.478;5.694;2022-08-24T07:59:42;29.40;;;19.83;;
46675;SDS011;32412;51.478;5.694;2022-08-24T08:02:11;14.73;;;10.90;;
46675;SDS011;32412;51.478;5.694;2022-08-24T08:04:38;13.45;;;9.77;;
46675;SDS011;32412;51.478;5.694;2022-08-24T08:07:04;14.07;;;10.80;;
46675;SDS011;32412;51.478;5.694;2022-08-24T08:09:31;12.93;;;11.35;;
46675;SDS011;32412;51.478;5.694;2022-08-24T08:11:58;14.48;;;10.55;;
46675;SDS011;32412;51.478;5.694;2022-08-24T08:14:23;14.80;;;10.00;;
46675;SDS011;32412;51.478;5.694;2022-08-24T08:16:49;17.55;;;11.13;;
46675;SDS011;32412;51.478;5.694;2022-08-24T08:19:15;15.77;;;10.32;;
46675;SDS011;32412;51.478;5.694;2022-08-24T08:21:45;17.73;;;11.15;;
46675;SDS011;32412;51.478;5.694;2022-08-24T08:24:31;14.60;;;10.02;;
46675;SDS011;32412;51.478;5.694;2022-08-24T08:26:57;13.57;;;9.30;;
46675;SDS011;32412;51.478;5.694;2022-08-24T08:29:25;60.42;;;42.85;;
46675;SDS011;32412;51.478;5.694;2022-08-24T08:31:52;13.57;;;9.50;;
46675;SDS011;32412;51.478;5.694;2022-08-24T08:34:18;13.13;;;9.02;;
46675;SDS011;32412;51.478;5.694;2022-08-24T08:36:47;13.70;;;9.85;;
46675;SDS011;32412;51.478;5.694;2022-08-24T08:39:14;6.38;;;3.95;;
46675;SDS011;32412;51.478;5.694;2022-08-24T08:47:16;6.57;;;4.72;;
46675;SDS011;32412;51.478;5.694;2022-08-24T08:52:29;6.20;;;4.88;;
46675;SDS011;32412;51.478;5.694;2022-08-24T08:55:03;5.75;;;4.13;;
46675;SDS011;32412;51.478;5.694;2022-08-24T09:03:57;3.95;;;1.85;;
46675;SDS011;32412;51.478;5.694;2022-08-24T09:26:39;5.95;;;3.78;;
46675;SDS011;32412;51.478;5.694;2022-08-24T09:34:59;5.90;;;3.80;;
46675;SDS011;32412;51.478;5.694;2022-08-24T09:37:29;5.10;;;3.90;;
46675;SDS011;32412;51.478;5.694;2022-08-24T09:53:14;8.95;;;3.42;;
46675;SDS011;32412;51.478;5.694;2022-08-24T10:08:12;5.47;;;2.80;;
46675;SDS011;32412;51.478;5.694;2022-08-24T10:11:42;8.25;;;3.70;;
46675;SDS011;32412;51.478;5.694;2022-08-24T10:14:19;10.88;;;4.40;;
46675;SDS011;32412;51.478;5.694;2022-08-24T10:27:55;7.53;;;2.35;;
46675;SDS011;32412;51.478;5.694;2022-08-24T10:33:25;4.93;;;1.90;;
46675;SDS011;32412;51.478;5.694;2022-08-24T10:41:49;4.47;;;2.22;;
46675;SDS011;32412;51.478;5.694;2022-08-24T10:44:48;2.10;;;1.90;;
46675;SDS011;32412;51.478;5.694;2022-08-24T10:47:33;3.33;;;3.08;;
46675;SDS011;32412;51.478;5.694;2022-08-24T10:50:12;2.85;;;2.58;;
46675;SDS011;32412;51.478;5.694;2022-08-24T11:01:33;5.75;;;1.98;;
46675;SDS011;32412;51.478;5.694;2022-08-24T11:06:35;4.77;;;1.80;;
46675;SDS011;32412;51.478;5.694;2022-08-24T11:09:08;4.97;;;1.83;;
46675;SDS011;32412;51.478;5.694;2022-08-24T11:11:37;7.32;;;2.00;;
46675;SDS011;32412;51.478;5.694;2022-08-24T11:14:21;3.97;;;3.05;;
46675;SDS011;32412;51.478;5.694;2022-08-24T11:16:48;5.18;;;2.92;;
46675;SDS011;32412;51.478;5.694;2022-08-24T11:19:33;3.33;;;1.80;;
46675;SDS011;32412;51.478;5.694;2022-08-24T11:22:20;5.85;;;2.88;;
46675;SDS011;32412;51.478;5.694;2022-08-24T11:24:50;3.80;;;1.73;;
46675;SDS011;32412;51.478;5.694;2022-08-24T11:27:27;1.60;;;1.50;;
46675;SDS011;32412;51.478;5.694;2022-08-24T11:30:14;2.80;;;1.52;;
46675;SDS011;32412;51.478;5.694;2022-08-24T11:32:44;4.57;;;1.40;;
46675;SDS011;32412;51.478;5.694;2022-08-24T11:35:25;4.53;;;1.80;;
46675;SDS011;32412;51.478;5.694;2022-08-24T11:37:53;4.40;;;1.60;;
46675;SDS011;32412;51.478;5.694;2022-08-24T11:40:28;3.55;;;2.10;;
46675;SDS011;32412;51.478;5.694;2022-08-24T11:59:49;8.23;;;1.65;;
46675;SDS011;32412;51.478;5.694;2022-08-24T12:02:38;7.03;;;2.25;;
46675;SDS011;32412;51.478;5.694;2022-08-24T12:11:07;9.13;;;2.13;;
46675;SDS011;32412;51.478;5.694;2022-08-24T12:13:55;4.53;;;2.13;;
46675;SDS011;32412;51.478;5.694;2022-08-24T12:16:44;3.10;;;1.92;;
46675;SDS011;32412;51.478;5.694;2022-08-24T12:21:59;6.60;;;2.25;;
46675;SDS011;32412;51.478;5.694;2022-08-24T12:27:11;8.82;;;6.63;;
46675;SDS011;32412;51.478;5.694;2022-08-24T12:29:51;11.02;;;8.43;;
46675;SDS011;32412;51.478;5.694;2022-08-24T12:32:47;4.82;;;2.10;;
46675;SDS011;32412;51.478;5.694;2022-08-24T12:38:06;3.00;;;2.13;;
46675;SDS011;32412;51.478;5.694;2022-08-24T12:40:51;4.97;;;1.92;;
46675;SDS011;32412;51.478;5.694;2022-08-24T12:46:01;3.83;;;2.25;;
46675;SDS011;32412;51.478;5.694;2022-08-24T12:54:19;8.07;;;2.90;;
46675;SDS011;32412;51.478;5.694;2022-08-24T13:00:16;7.10;;;2.53;;
46675;SDS011;32412;51.478;5.694;2022-08-24T13:03:23;6.45;;;2.15;;
46675;SDS011;32412;51.478;5.694;2022-08-24T13:05:55;4.93;;;1.75;;
46675;SDS011;32412;51.478;5.694;2022-08-24T13:08:34;4.20;;;2.10;;
46675;SDS011;32412;51.478;5.694;2022-08-24T13:11:05;7.00;;;1.77;;
46675;SDS011;32412;51.478;5.694;2022-08-24T13:21:49;3.08;;;2.05;;
46675;SDS011;32412;51.478;5.694;2022-08-24T13:24:39;6.70;;;2.00;;
46675;SDS011;32412;51.478;5.694;2022-08-24T13:32:38;3.65;;;2.00;;
46675;SDS011;32412;51.478;5.694;2022-08-24T13:40:48;4.70;;;1.88;;
46675;SDS011;32412;51.478;5.694;2022-08-24T13:43:32;3.67;;;1.95;;
46675;SDS011;32412;51.478;5.694;2022-08-24T13:46:08;3.33;;;2.47;;
46675;SDS011;32412;51.478;5.694;2022-08-24T13:51:39;4.20;;;2.03;;
46675;SDS011;32412;51.478;5.694;2022-08-24T13:54:12;3.20;;;1.63;;
46675;SDS011;32412;51.478;5.694;2022-08-24T14:00:16;6.35;;;1.70;;
46675;SDS011;32412;51.478;5.694;2022-08-24T14:33:07;2.85;;;1.60;;
46675;SDS011;32412;51.478;5.694;2022-08-24T14:44:01;2.53;;;1.42;;
46675;SDS011;32412;51.478;5.694;2022-08-24T14:46:58;7.15;;;1.92;;
46675;SDS011;32412;51.478;5.694;2022-08-24T15:06:50;6.65;;;1.73;;
46675;SDS011;32412;51.478;5.694;2022-08-24T15:09:55;6.07;;;1.88;;
46675;SDS011;32412;51.478;5.694;2022-08-24T15:15:14;3.20;;;1.40;;
46675;SDS011;32412;51.478;5.694;2022-08-24T15:18:07;3.63;;;1.45;;
46675;SDS011;32412;51.478;5.694;2022-08-24T15:26:40;4.78;;;1.75;;
46675;SDS011;32412;51.478;5.694;2022-08-24T15:29:20;4.03;;;1.52;;
46675;SDS011;32412;51.478;5.694;2022-08-24T15:32:06;5.47;;;1.50;;
46675;SDS011;32412;51.478;5.694;2022-08-24T15:34:38;3.80;;;1.40;;
46675;SDS011;32412;51.478;5.694;2022-08-24T15:37:26;7.47;;;1.98;;
46675;SDS011;32412;51.478;5.694;2022-08-24T15:40:00;1.90;;;1.60;;
46675;SDS011;32412;51.478;5.694;2022-08-24T15:42:33;2.40;;;1.58;;
46675;SDS011;32412;51.478;5.694;2022-08-24T15:45:01;5.82;;;1.80;;
46675;SDS011;32412;51.478;5.694;2022-08-24T15:47:29;2.67;;;1.88;;
46675;SDS011;32412;51.478;5.694;2022-08-24T15:49:57;6.15;;;1.92;;
46675;SDS011;32412;51.478;5.694;2022-08-24T15:52:38;4.40;;;1.63;;
46675;SDS011;32412;51.478;5.694;2022-08-24T15:58:30;2.28;;;1.58;;
46675;SDS011;32412;51.478;5.694;2022-08-24T16:11:32;2.75;;;1.77;;
46675;SDS011;32412;51.478;5.694;2022-08-24T16:14:04;3.60;;;1.70;;
46675;SDS011;32412;51.478;5.694;2022-08-24T16:16:37;4.97;;;1.77;;
46675;SDS011;32412;51.478;5.694;2022-08-24T16:19:10;3.10;;;1.63;;
46675;SDS011;32412;51.478;5.694;2022-08-24T16:21:51;2.97;;;1.80;;
46675;SDS011;32412;51.478;5.694;2022-08-24T16:37:35;5.65;;;1.92;;
46675;SDS011;32412;51.478;5.694;2022-08-24T16:40:01;2.47;;;1.45;;
46675;SDS011;32412;51.478;5.694;2022-08-24T16:42:28;4.60;;;1.90;;
46675;SDS011;32412;51.478;5.694;2022-08-24T16:44:55;7.63;;;1.90;;
46675;SDS011;32412;51.478;5.694;2022-08-24T16:47:59;5.85;;;2.00;;
46675;SDS011;32412;51.478;5.694;2022-08-24T16:50:25;3.72;;;1.60;;
46675;SDS011;32412;51.478;5.694;2022-08-24T16:52:50;2.17;;;1.95;;
46675;SDS011;32412;51.478;5.694;2022-08-24T16:55:16;4.65;;;1.90;;
46675;SDS011;32412;51.478;5.694;2022-08-24T16:57:42;6.38;;;1.83;;
46675;SDS011;32412;51.478;5.694;2022-08-24T17:00:09;4.95;;;1.90;;
46675;SDS011;32412;51.478;5.694;2022-08-24T17:02:39;4.43;;;1.77;;
46675;SDS011;32412;51.478;5.694;2022-08-24T17:05:05;5.03;;;2.03;;
46675;SDS011;32412;51.478;5.694;2022-08-24T17:07:31;5.95;;;2.20;;
46675;SDS011;32412;51.478;5.694;2022-08-24T17:09:57;5.60;;;2.05;;
46675;SDS011;32412;51.478;5.694;2022-08-24T17:12:27;3.15;;;1.40;;
46675;SDS011;32412;51.478;5.694;2022-08-24T17:14:55;4.32;;;1.90;;
46675;SDS011;32412;51.478;5.694;2022-08-24T17:17:22;4.43;;;1.90;;
46675;SDS011;32412;51.478;5.694;2022-08-24T17:19:49;4.05;;;1.77;;
46675;SDS011;32412;51.478;5.694;2022-08-24T17:22:17;2.55;;;1.70;;
46675;SDS011;32412;51.478;5.694;2022-08-24T17:24:44;4.75;;;1.85;;
46675;SDS011;32412;51.478;5.694;2022-08-24T17:27:10;4.72;;;2.03;;
46675;SDS011;32412;51.478;5.694;2022-08-24T17:29:36;3.70;;;1.77;;
46675;SDS011;32412;51.478;5.694;2022-08-24T17:32:02;5.93;;;1.90;;
46675;SDS011;32412;51.478;5.694;2022-08-24T17:34:29;5.72;;;1.63;;
46675;SDS011;32412;51.478;5.694;2022-08-24T17:36:56;4.47;;;1.70;;
46675;SDS011;32412;51.478;5.694;2022-08-24T17:39:22;4.03;;;1.65;;
46675;SDS011;32412;51.478;5.694;2022-08-24T17:41:52;6.85;;;2.05;;
46675;SDS011;32412;51.478;5.694;2022-08-24T17:44:21;5.88;;;2.10;;
46675;SDS011;32412;51.478;5.694;2022-08-24T17:46:49;5.22;;;1.90;;
46675;SDS011;32412;51.478;5.694;2022-08-24T17:49:21;6.90;;;1.77;;
46675;SDS011;32412;51.478;5.694;2022-08-24T17:51:48;5.07;;;2.10;;
46675;SDS011;32412;51.478;5.694;2022-08-24T17:54:14;6.90;;;1.67;;
46675;SDS011;32412;51.478;5.694;2022-08-24T17:56:40;3.03;;;1.95;;
46675;SDS011;32412;51.478;5.694;2022-08-24T17:59:07;4.75;;;2.00;;
46675;SDS011;32412;51.478;5.694;2022-08-24T18:01:48;4.78;;;1.83;;
46675;SDS011;32412;51.478;5.694;2022-08-24T18:04:19;5.07;;;1.77;;
46675;SDS011;32412;51.478;5.694;2022-08-24T18:06:47;7.00;;;2.15;;
46675;SDS011;32412;51.478;5.694;2022-08-24T18:09:15;6.90;;;2.47;;
46675;SDS011;32412;51.478;5.694;2022-08-24T18:11:43;7.25;;;2.65;;
46675;SDS011;32412;51.478;5.694;2022-08-24T18:14:09;11.25;;;2.90;;
46675;SDS011;32412;51.478;5.694;2022-08-24T18:16:34;11.15;;;3.90;;
46675;SDS011;32412;51.478;5.694;2022-08-24T18:19:00;8.02;;;2.72;;
46675;SDS011;32412;51.478;5.694;2022-08-24T18:21:26;6.95;;;2.50;;
46675;SDS011;32412;51.478;5.694;2022-08-24T18:23:52;6.75;;;2.50;;
46675;SDS011;32412;51.478;5.694;2022-08-24T18:26:21;5.93;;;2.35;;
46675;SDS011;32412;51.478;5.694;2022-08-24T18:28:50;9.52;;;2.22;;
46675;SDS011;32412;51.478;5.694;2022-08-24T18:31:16;7.13;;;2.30;;
46675;SDS011;32412;51.478;5.694;2022-08-24T18:33:42;6.55;;;1.95;;
46675;SDS011;32412;51.478;5.694;2022-08-24T18:36:07;9.10;;;2.40;;
46675;SDS011;32412;51.478;5.694;2022-08-24T18:38:33;4.00;;;2.38;;
46675;SDS011;32412;51.478;5.694;2022-08-24T18:40:59;7.13;;;2.55;;
46675;SDS011;32412;51.478;5.694;2022-08-24T18:47:09;3.95;;;2.10;;
46675;SDS011;32412;51.478;5.694;2022-08-24T18:49:35;5.28;;;1.92;;
46675;SDS011;32412;51.478;5.694;2022-08-24T18:52:04;5.35;;;2.33;;
46675;SDS011;32412;51.478;5.694;2022-08-24T18:54:34;4.03;;;1.98;;
46675;SDS011;32412;51.478;5.694;2022-08-24T18:57:01;4.22;;;2.28;;
46675;SDS011;32412;51.478;5.694;2022-08-24T18:59:30;7.57;;;2.38;;
46675;SDS011;32412;51.478;5.694;2022-08-24T19:01:56;5.50;;;2.17;;
46675;SDS011;32412;51.478;5.694;2022-08-24T19:04:43;5.03;;;1.92;;
46675;SDS011;32412;51.478;5.694;2022-08-24T19:07:11;5.78;;;2.22;;
46675;SDS011;32412;51.478;5.694;2022-08-24T19:09:37;5.95;;;2.42;;
46675;SDS011;32412;51.478;5.694;2022-08-24T19:12:03;6.60;;;1.98;;